Sandy Bay Yacht Club
Weather Center


Nearby METAR Reports

Nearby METAR Reports

 

KBVY - Beverly, Massachusetts, USA
Distance from station: WSW 16mi, 26km
Updated: Sun, 25-Oct-2020 2:53am EDT
Overcast
Overcast
 Wind from NNW
Wind: NNW 8 mph , 13 km/h
Temperature: 45°F , 7°C
Wind Chill: 41°F , 5°C
Dew Point: 34°F , 1°C
Humidity: 66%
Barometer: 30.09 inHg , 1019 hPa
Clouds: Overcast
Visibility: 10 miles , 16 km
Cloud details: Overcast 3600 ft
2020/10/25 06:53 KBVY 250653Z AUTO 33007KT 10SM OVC036 07/01 A3009 RMK AO2 SLP184 T00670006
KLWM - Lawrence, Massachusetts, USA
Distance from station: W 27mi, 43km
Updated: Sun, 25-Oct-2020 2:54am EDT
Clear
Clear
 Wind from WNW
Wind: WNW 3 mph , 6 km/h
Temperature: 43°F , 6°C
Dew Point: 34°F , 1°C
Humidity: 71%
Barometer: 30.12 inHg , 1020 hPa
Clouds: Clear
Visibility: 10 miles , 16 km
2020/10/25 06:54 KLWM 250654Z AUTO 30003KT 10SM CLR 06/01 A3012 RMK AO2 SLP200 T00560006
 
KBOS - Boston, Massachusetts, USA
Distance from station: SW 29mi, 46km
Updated: Sun, 25-Oct-2020 2:54am EDT
Mostly Cloudy
Mostly Cloudy
 Wind from NNW
Wind: NNW 9 mph , 15 km/h
Temperature: 46°F , 8°C
Wind Chill: 41°F , 5°C
Dew Point: 32°F , 0°C
Humidity: 57%
Barometer: 30.10 inHg , 1019.3 hPa
Clouds: Mostly Cloudy
Visibility: 10 miles , 16 km
Cloud details: Mostly Cloudy 3700 ft
Mostly Cloudy 25000 ft
2020/10/25 06:54 KBOS 250654Z 33008KT 10SM BKN037 BKN250 08/00 A3010 RMK AO2 SLP192 T00780000
KPSM - Portsmouth/Pease, New Hampshire, USA
Distance from station: NNW 30mi, 48km
Updated: Sun, 25-Oct-2020 2:56am EDT
Overcast
Overcast
 Wind from W
Wind: W 3 mph , 6 km/h
Temperature: 45°F , 7°C
Dew Point: 32°F , 0°C
Humidity: 61%
Barometer: 30.08 inHg , 1018.6 hPa
Clouds: Overcast
Visibility: 10 miles , 16 km
Cloud details: Overcast 3900 ft
2020/10/25 06:56 KPSM 250656Z 28003KT 10SM OVC039 07/00 A3008 RMK AO2A SLP189 T00680002
 
KMHT - Manchester, New Hampshire, USA
Distance from station: WNW 46mi, 73km
Updated: Sun, 25-Oct-2020 3:53am EDT
Clear
Clear
 Wind from NNW
Wind: NNW 10 mph , 17 km/h
Temperature: 43°F , 6°C
Wind Chill: 37°F , 3°C
Dew Point: 30°F , -1°C
Humidity: 61%
Barometer: 30.10 inHg , 1019.3 hPa
Clouds: Clear
Visibility: 10 miles , 16 km
2020/10/25 07:53 KMHT 250753Z 33009KT 10SM CLR 06/M01 A3010 RMK AO2 SLP206 T00611011
KPVC - Provincetown, Massachusetts, USA
Distance from station: SSE 46mi, 73km
Updated: Sun, 25-Oct-2020 2:56am EDT
Mostly Cloudy
Mostly Cloudy
 Wind from N
Wind: N 16 mph , 26 km/h, Gust: 22 mph , 35 km/h
Temperature: 50°F , 10°C
Wind Chill: 44°F , 7°C
Dew Point: 39°F , 4°C
Humidity: 67%
Barometer: 30.07 inHg , 1018.3 hPa
Clouds: Mostly Cloudy
Visibility: 10 miles , 16 km
Cloud details: Partly Cloudy 3200 ft
Mostly Cloudy 4900 ft
2020/10/25 06:56 KPVC 250656Z AUTO 01014G19KT 10SM SCT032 BKN049 10/04 A3007 RMK AO2 SLP182 T01000044
 
KDAW - Rochester, New Hampshire, USA
Distance from station: NNW 46mi, 74km
Updated: Sun, 25-Oct-2020 3:51am EDT
Clear
Clear
 Wind from NNW
Wind: NNW 3 mph , 6 km/h
Temperature: 34°F , 1°C
Dew Point: 32°F , 0°C
Humidity: 93%
Barometer: 30.10 inHg , 1019.3 hPa
Clouds: Clear
Visibility: 10 miles , 16 km
2020/10/25 07:51 KDAW 250751Z AUTO 33003KT 10SM CLR 01/00 A3010 RMK AO2 SLP192 T00110000
KASH - Nashua/Boire Fld, New Hampshire, USA
Distance from station: W 47mi, 75km
Updated: Sun, 25-Oct-2020 2:56am EDT
Clear
Clear
 Wind from NW
Wind: NW 8 mph , 13 km/h
Temperature: 36°F , 2°C
Wind Chill: 30°F , -1°C
Dew Point: 36°F , 2°C
Humidity: 100%
Barometer: 30.12 inHg , 1020 hPa
Clouds: Clear
Visibility: 10 miles , 16 km
2020/10/25 06:56 KASH 250656Z AUTO 31007KT 10SM CLR 02/02 A3012 RMK AO2 SLP204 T00220017
 
KSFM - Sanford Muni, Maine, USA
Distance from station: N 50mi, 81km
Updated: Sun, 25-Oct-2020 2:56am EDT
Clear
Clear
 Wind from calm
Wind: Calm
Temperature: 28°F , -2°C
Dew Point: 28°F , -2°C
Humidity: 100%
Barometer: 30.10 inHg , 1019.3 hPa
Clouds: Clear
Visibility: 10 miles , 16 km
2020/10/25 06:56 KSFM 250656Z AUTO 00000KT 10SM CLR M02/M02 A3010 RMK AO2 SLP195 T10171022 FZRANO

Metar display script from Saratoga-Weather.org

 



home

Copyright © Sandy Bay Yacht Club. All rights reserved.